^^
Saratoga-Weather Station Historical Data
Daily Summary for April 12, 2020 Units:  Metric    English   Both
Daily Weekly Monthly Yearly Custom
  High: Low: Average:
Temperature: 6 °C -0.1 °C 3.5 °C
Dew Point: 5.4 °C -0.8 °C 2.4 °C
Humidity: 96% 85% 93%
Wind Speed: 11.1km/h 0km/h 0.2km/h
Wind Gust: 16.1km/h - -
Wind- - SW
Pressure: 1029.5 hPa 1025.1 hPa -
Precipitation: 0.8 mm    
Historical Graphs
 
 
Tabular Data for April 12, 2020
Time Temperature Dew Point Pressure Wind Wind Speed Wind Gust Humidity Rainfall Rate (Hourly) solar
00:01 1.7 °C 0.8 °C 1029.5 hPa Calm     94% 0.0 mm 0 W/m2
00:06 1.6 °C 0.7 °C 1029.5 hPa Calm     94% 0.0 mm 0 W/m2
00:11 1.6 °C 0.7 °C 1029.5 hPa Calm   1.6 km/h 94% 0.0 mm 0 W/m2
00:16 1.6 °C 0.6 °C 1029.5 hPa Calm     93% 0.0 mm 0 W/m2
00:21 1.5 °C 0.6 °C 1029.1 hPa Calm   1.6 km/h 94% 0.0 mm 0 W/m2
00:26 1.6 °C 0.7 °C 1029.1 hPa Calm     94% 0.0 mm 0 W/m2
00:31 1.5 °C 0.6 °C 1029.1 hPa Calm     94% 0.0 mm 0 W/m2
00:36 1.5 °C 0.6 °C 1029.1 hPa Calm     94% 0.0 mm 0 W/m2
00:41 1.4 °C 0.4 °C 1029.1 hPa Calm     93% 0.0 mm 0 W/m2
00:46 1.3 °C 0.4 °C 1029.1 hPa Calm   1.6 km/h 94% 0.0 mm 0 W/m2
00:51 1.3 °C 0.4 °C 1029.1 hPa Calm     94% 0.0 mm 0 W/m2
00:56 1.3 °C 0.4 °C 1029.1 hPa Calm   1.6 km/h 94% 0.0 mm 0 W/m2
01:01 1.3 °C 0.4 °C 1028.8 hPa Calm     94% 0.0 mm 0 W/m2
01:06 1.3 °C 0.4 °C 1028.8 hPa Calm     94% 0.0 mm 0 W/m2
01:11 1.3 °C 0.4 °C 1028.8 hPa Calm     94% 0.0 mm 0 W/m2
01:16 1.2 °C 0.3 °C 1028.8 hPa Calm     94% 0.0 mm 0 W/m2
01:21 1.2 °C 0.3 °C 1028.8 hPa Calm     94% 0.0 mm 0 W/m2
01:26 1.2 °C 0.3 °C 1028.8 hPa Calm     94% 0.0 mm 0 W/m2
01:31 1.2 °C 0.3 °C 1028.8 hPa Calm     94% 0.0 mm 0 W/m2
01:36 1.3 °C 0.4 °C 1028.5 hPa Calm   1.6 km/h 94% 0.0 mm 0 W/m2
01:41 1.4 °C 0.7 °C 1028.5 hPa Calm     95% 0.0 mm 0 W/m2
01:46 1.5 °C 0.6 °C 1028.8 hPa Calm   1.6 km/h 94% 0.0 mm 0 W/m2
01:51 1.4 °C 0.5 °C 1028.8 hPa Calm     94% 0.0 mm 0 W/m2
01:56 1.3 °C 0.4 °C 1028.5 hPa Calm     94% 0.0 mm 0 W/m2
02:01 1.3 °C 0.4 °C 1028.5 hPa Calm   1.6 km/h 94% 0.0 mm 0 W/m2
02:06 1.3 °C 0.4 °C 1028.5 hPa Calm     94% 0.0 mm 0 W/m2
02:11 1.3 °C 0.4 °C 1028.5 hPa Calm   1.6 km/h 94% 0.0 mm 0 W/m2
02:16 1.3 °C 0.4 °C 1028.5 hPa Calm     94% 0.0 mm 0 W/m2
02:21 1.3 °C 0.4 °C 1028.5 hPa Calm     94% 0.0 mm 0 W/m2
02:26 1.5 °C 0.6 °C 1028.5 hPa Calm     94% 0.0 mm 0 W/m2
02:31 1.6 °C 0.7 °C 1028.5 hPa Calm     94% 0.0 mm 0 W/m2
02:36 1.7 °C 0.8 °C 1028.5 hPa Calm     94% 0.0 mm 0 W/m2
02:41 1.8 °C 0.9 °C 1028.5 hPa Calm     94% 0.0 mm 0 W/m2
02:46 2 °C 1.1 °C 1028.5 hPa Calm     94% 0.0 mm 0 W/m2
02:51 2 °C 1 °C 1028.5 hPa Calm     93% 0.0 mm 0 W/m2
02:56 1.9 °C 0.9 °C 1028.1 hPa Calm     93% 0.0 mm 0 W/m2
03:01 1.8 °C 0.8 °C 1028.1 hPa Calm     93% 0.0 mm 0 W/m2
03:06 1.7 °C 0.5 °C 1028.1 hPa Calm     92% 0.0 mm 0 W/m2
03:11 1.6 °C 0.4 °C 1028.5 hPa Calm     92% 0.0 mm 0 W/m2
03:16 1.4 °C 0.2 °C 1028.1 hPa Calm     92% 0.0 mm 0 W/m2
03:21 1.2 °C 0 °C 1028.1 hPa Calm     92% 0.0 mm 0 W/m2
03:26 1.2 °C 0 °C 1028.1 hPa Calm     92% 0.0 mm 0 W/m2
03:31 1 °C 0 °C 1028.1 hPa Calm     93% 0.0 mm 0 W/m2
03:36 0.9 °C -0.1 °C 1027.8 hPa Calm     93% 0.0 mm 0 W/m2
03:42 0.8 °C -0.2 °C 1028.1 hPa Calm     93% 0.0 mm 0 W/m2
03:47 0.7 °C -0.3 °C 1027.8 hPa Calm     93% 0.0 mm 0 W/m2
03:52 0.6 °C -0.4 °C 1027.8 hPa Calm     93% 0.0 mm 0 W/m2
03:57 0.4 °C -0.6 °C 1027.8 hPa Calm     93% 0.0 mm 0 W/m2
04:02 0.3 °C -0.7 °C 1027.8 hPa Calm     93% 0.0 mm 0 W/m2
04:07 0.3 °C -0.6 °C 1027.8 hPa Calm     94% 0.0 mm 0 W/m2
04:12 0.2 °C -0.7 °C 1027.8 hPa Calm     94% 0.0 mm 0 W/m2
04:17 0.2 °C -0.7 °C 1027.8 hPa Calm     94% 0.0 mm 0 W/m2
04:22 0.1 °C -0.8 °C 1027.8 hPa Calm     94% 0.0 mm 0 W/m2
04:27 0.2 °C -0.5 °C 1027.4 hPa Calm     95% 0.0 mm 0 W/m2
04:32 0.2 °C -0.5 °C 1027.8 hPa Calm     95% 0.0 mm 0 W/m2
04:37 0.2 °C -0.5 °C 1027.4 hPa Calm     95% 0.0 mm 0 W/m2
04:42 0.2 °C -0.7 °C 1027.8 hPa Calm     94% 0.0 mm 0 W/m2
04:47 0.1 °C -0.8 °C 1027.4 hPa Calm     94% 0.0 mm 0 W/m2
04:52 0 °C -0.7 °C 1027.4 hPa Calm     95% 0.0 mm 0 W/m2
04:57 0.1 °C -0.6 °C 1027.4 hPa Calm     95% 0.0 mm 0 W/m2
05:02 0.1 °C -0.6 °C 1027.4 hPa Calm     95% 0.0 mm 0 W/m2
05:07 0.1 °C -0.6 °C 1027.4 hPa Calm     95% 0.0 mm 0 W/m2
05:12 -0.1 °C -0.8 °C 1027.4 hPa Calm     95% 0.0 mm 0 W/m2
05:17 -0.1 °C -0.8 °C 1027.4 hPa Calm     95% 0.0 mm 0 W/m2
05:22 -0.1 °C -0.8 °C 1027.4 hPa Calm     95% 0.0 mm 0 W/m2
05:27 0.1 °C -0.6 °C 1027.4 hPa Calm     95% 0.0 mm 0 W/m2
05:32 0.2 °C -0.4 °C 1027.4 hPa Calm     96% 0.0 mm 0 W/m2
05:37 0.3 °C -0.3 °C 1027.4 hPa Calm     96% 0.0 mm 0 W/m2
05:42 0.3 °C -0.4 °C 1027.4 hPa Calm     95% 0.0 mm 0 W/m2
05:47 0.3 °C -0.4 °C 1027.4 hPa Calm     95% 0.0 mm 0 W/m2
05:52 0.5 °C -0.1 °C 1027.4 hPa Calm     96% 0.0 mm 0 W/m2
05:57 0.7 °C 0.1 °C 1027.4 hPa Calm     96% 0.0 mm 0 W/m2
06:02 0.7 °C 0 °C 1027.8 hPa Calm     95% 0.0 mm 0 W/m2
06:07 0.6 °C -0.1 °C 1027.8 hPa Calm     95% 0.0 mm 0 W/m2
06:12 0.4 °C -0.3 °C 1027.8 hPa Calm     95% 0.0 mm 0 W/m2
06:17 0.3 °C -0.4 °C 1027.8 hPa Calm     95% 0.0 mm 0 W/m2
06:22 0.4 °C -0.3 °C 1027.8 hPa Calm   1.6 km/h 95% 0.0 mm 0 W/m2
06:27 0.5 °C -0.2 °C 1027.8 hPa Calm     95% 0.0 mm 0 W/m2
06:33 0.6 °C 0 °C 1027.8 hPa Calm     96% 0.0 mm 0 W/m2
06:38 0.8 °C 0.2 °C 1027.4 hPa Calm     96% 0.0 mm 0 W/m2
06:43 0.9 °C 0.3 °C 1027.4 hPa Calm     96% 0.0 mm 0 W/m2
06:48 1 °C 0.4 °C 1027.4 hPa Calm     96% 0.0 mm 0 W/m2
06:53 0.9 °C 0.2 °C 1027.4 hPa Calm     95% 0.0 mm 0 W/m2
06:58 0.8 °C 0.1 °C 1027.4 hPa Calm     95% 0.0 mm 0 W/m2
07:03 0.7 °C 0 °C 1027.4 hPa Calm     95% 0.0 mm 0 W/m2
07:08 0.7 °C 0 °C 1027.4 hPa Calm     95% 0.0 mm 0 W/m2
07:13 0.6 °C -0.1 °C 1027.4 hPa Calm     95% 0.0 mm 0 W/m2
07:18 0.7 °C 0.1 °C 1027.4 hPa Calm     96% 0.0 mm 0 W/m2
07:23 0.7 °C 0 °C 1027.4 hPa Calm     95% 0.0 mm 0 W/m2
07:28 0.7 °C 0 °C 1027.4 hPa Calm     95% 0.0 mm 0 W/m2
07:33 0.7 °C 0 °C 1027.4 hPa Calm     95% 0.0 mm 0 W/m2
07:38 0.7 °C 0 °C 1027.4 hPa Calm     95% 0.0 mm 0 W/m2
07:43 0.7 °C 0 °C 1027.4 hPa Calm     95% 0.0 mm 0 W/m2
07:48 0.8 °C 0.1 °C 1027.4 hPa Calm     95% 0.0 mm 0 W/m2
07:54 0.9 °C 0.2 °C 1027.4 hPa Calm     95% 0.0 mm 0 W/m2
07:59 0.9 °C 0.2 °C 1027.1 hPa Calm     95% 0.0 mm 0 W/m2
08:04 0.9 °C 0.2 °C 1027.1 hPa Calm   1.6 km/h 95% 0.0 mm 0 W/m2
08:09 1 °C 0.3 °C 1027.1 hPa Calm     95% 0.0 mm 0 W/m2
08:14 1 °C 0.3 °C 1026.8 hPa Calm   3.2 km/h 95% 0.0 mm 0 W/m2
08:19 1.1 °C 0.4 °C 1026.8 hPa Calm     95% 0.0 mm 0 W/m2
08:24 1.2 °C 0.5 °C 1026.8 hPa Calm     95% 0.0 mm 5 W/m2
08:29 1.2 °C 0.5 °C 1026.8 hPa Calm     95% 0.0 mm 5 W/m2
08:34 1.2 °C 0.3 °C 1026.8 hPa Calm     94% 0.0 mm 9 W/m2
08:39 1.3 °C 0.4 °C 1026.8 hPa Calm     94% 0.0 mm 11 W/m2
08:44 1.3 °C 0.4 °C 1026.8 hPa Calm     94% 0.0 mm 12 W/m2
08:49 1.3 °C 0.4 °C 1026.8 hPa Calm     94% 0.0 mm 16 W/m2
08:54 1.4 °C 0.5 °C 1026.8 hPa Calm     94% 0.0 mm 28 W/m2
08:59 1.4 °C 0.5 °C 1026.8 hPa Calm     94% 0.0 mm 23 W/m2
09:04 1.6 °C 0.7 °C 1027.1 hPa Calm     94% 0.0 mm 28 W/m2
09:09 1.7 °C 0.8 °C 1027.1 hPa Calm     94% 0.0 mm 23 W/m2
09:14 1.7 °C 0.7 °C 1027.1 hPa Calm     93% 0.0 mm 28 W/m2
09:19 1.8 °C 0.8 °C 1027.1 hPa Calm     93% 0.0 mm 37 W/m2
09:24 1.9 °C 0.9 °C 1027.1 hPa Calm     93% 0.0 mm 42 W/m2
09:29 2 °C 1 °C 1027.4 hPa Calm   1.6 km/h 93% 0.0 mm 49 W/m2
09:34 2.1 °C 1.1 °C 1027.4 hPa Calm     93% 0.0 mm 49 W/m2
09:39 2.2 °C 1 °C 1027.4 hPa Calm   1.6 km/h 92% 0.0 mm 67 W/m2
09:44 2.2 °C 1 °C 1027.4 hPa Calm     92% 0.2 mm 69 W/m2
09:50 2.3 °C 1.1 °C 1027.1 hPa Calm     92% 0.2 mm 77 W/m2
09:55 2.4 °C 1.2 °C 1027.1 hPa Calm     92% 0.2 mm 88 W/m2
10:00 2.4 °C 1.2 °C 1027.4 hPa Calm     92% 0.2 mm 97 W/m2
10:05 2.6 °C 1.3 °C 1027.1 hPa Calm     91% 0.2 mm 125 W/m2
10:10 2.7 °C 1.4 °C 1027.4 hPa Calm     91% 0.2 mm 132 W/m2
10:15 2.8 °C 1.5 °C 1027.4 hPa Calm     91% 0.2 mm 114 W/m2
10:20 2.8 °C 1.5 °C 1027.4 hPa Calm     91% 0.2 mm 120 W/m2
10:25 2.9 °C 1.4 °C 1027.4 hPa Calm   3.2 km/h 90% 0.2 mm 121 W/m2
10:30 3 °C 1.5 °C 1027.4 hPa Calm   1.6 km/h 90% 0.2 mm 134 W/m2
10:35 3.1 °C 1.6 °C 1027.4 hPa Calm   3.2 km/h 90% 0.2 mm 128 W/m2
10:40 3.1 °C 1.6 °C 1027.4 hPa Calm     90% 0.0 mm 104 W/m2
10:46 3.1 °C 1.6 °C 1027.4 hPa Calm     90% 0.0 mm 125 W/m2
10:51 3.2 °C 1.7 °C 1027.4 hPa Calm   1.6 km/h 90% 0.0 mm 109 W/m2
10:56 3.3 °C 1.8 °C 1027.4 hPa Calm     90% 0.0 mm 98 W/m2
11:01 3.4 °C 1.9 °C 1027.4 hPa Calm     90% 0.0 mm 98 W/m2
11:06 3.4 °C 1.9 °C 1027.4 hPa Calm     90% 0.0 mm 72 W/m2
11:11 3.6 °C 2 °C 1027.4 hPa Calm     89% 0.0 mm 102 W/m2
11:16 3.6 °C 2 °C 1027.4 hPa Calm   1.6 km/h 89% 0.0 mm 100 W/m2
11:21 3.7 °C 2.1 °C 1027.4 hPa Calm     89% 0.0 mm 88 W/m2
11:26 3.8 °C 2.2 °C 1027.1 hPa Calm     89% 0.0 mm 120 W/m2
11:31 3.9 °C 2.1 °C 1027.1 hPa Calm   3.2 km/h 88% 0.0 mm 105 W/m2
11:36 4.1 °C 2.3 °C 1027.1 hPa Calm   4.8 km/h 88% 0.0 mm 123 W/m2
11:41 4.2 °C 2.4 °C 1027.1 hPa Calm     88% 0.0 mm 118 W/m2
11:46 4.2 °C 2.2 °C 1027.1 hPa Calm   1.6 km/h 87% 0.0 mm 97 W/m2
11:51 4.3 °C 2.3 °C 1026.8 hPa Calm   1.6 km/h 87% 0.0 mm 67 W/m2
11:56 4.3 °C 2.3 °C 1026.8 hPa Calm     87% 0.0 mm 105 W/m2
12:01 4.3 °C 2.3 °C 1026.8 hPa Calm   4.8 km/h 87% 0.0 mm 98 W/m2
12:06 4.3 °C 2.3 °C 1026.4 hPa Calm   11.3 km/h 87% 0.0 mm 102 W/m2
12:11 4.4 °C 2.3 °C 1026.4 hPa Calm   1.6 km/h 86% 0.0 mm 91 W/m2
12:16 4.4 °C 2.4 °C 1026.4 hPa Calm   6.4 km/h 87% 0.0 mm 86 W/m2
12:21 4.4 °C 2.4 °C 1026.4 hPa Calm     87% 0.0 mm 116 W/m2
12:26 4.5 °C 2.5 °C 1026.4 hPa Calm   1.6 km/h 87% 0.0 mm 95 W/m2
12:31 4.6 °C 2.6 °C 1026.1 hPa Calm     87% 0.0 mm 90 W/m2
12:36 4.7 °C 2.7 °C 1026.1 hPa Calm   3.2 km/h 87% 0.0 mm 97 W/m2
12:41 4.7 °C 2.7 °C 1026.1 hPa Calm     87% 0.0 mm 107 W/m2
12:46 4.8 °C 2.8 °C 1025.7 hPa Calm   3.2 km/h 87% 0.0 mm 102 W/m2
12:51 4.9 °C 2.8 °C 1025.7 hPa NW 6.4 km/h 6.4 km/h 86% 0.0 mm 98 W/m2
12:56 5 °C 2.9 °C 1025.7 hPa Calm   1.6 km/h 86% 0.0 mm 95 W/m2
13:01 5.1 °C 3 °C 1025.7 hPa Calm     86% 0.0 mm 98 W/m2
13:06 5.1 °C 3 °C 1025.7 hPa Calm   11.3 km/h 86% 0.0 mm 130 W/m2
13:11 5.2 °C 3.1 °C 1025.7 hPa Calm   4.8 km/h 86% 0.0 mm 111 W/m2
13:16 5.3 °C 3.1 °C 1025.7 hPa Calm   3.2 km/h 86% 0.0 mm 123 W/m2
13:21 5.4 °C 3.1 °C 1025.4 hPa Calm   4.8 km/h 85% 0.0 mm 127 W/m2
13:26 5.4 °C 3.1 °C 1025.4 hPa NNE 4.7 km/h 9.7 km/h 85% 0.0 mm 123 W/m2
13:31 5.6 °C 3.3 °C 1025.4 hPa Calm   4.8 km/h 85% 0.0 mm 149 W/m2
13:36 5.7 °C 3.4 °C 1025.4 hPa ESE 3.2 km/h 3.2 km/h 85% 0.0 mm 158 W/m2
13:41 5.8 °C 3.5 °C 1025.1 hPa Calm   1.6 km/h 85% 0.0 mm 148 W/m2
13:47 5.8 °C 3.5 °C 1025.1 hPa Calm   8 km/h 85% 0.0 mm 142 W/m2
13:52 5.8 °C 3.5 °C 1025.1 hPa NW 4.7 km/h 14.5 km/h 85% 0.0 mm 102 W/m2
13:57 5.8 °C 3.5 °C 1025.1 hPa ESE 1.4 km/h 8 km/h 85% 0.0 mm 105 W/m2
14:02 5.8 °C 3.5 °C 1025.1 hPa Calm   8 km/h 85% 0.0 mm 79 W/m2
14:07 5.8 °C 3.5 °C 1025.1 hPa WNW 1.4 km/h 12.9 km/h 85% 0.0 mm 86 W/m2
14:12 5.8 °C 3.5 °C 1025.1 hPa South 1.4 km/h 16.1 km/h 85% 0.0 mm 70 W/m2
14:17 5.8 °C 3.5 °C 1025.1 hPa NW 4.7 km/h 16.1 km/h 85% 0.0 mm 49 W/m2
14:22 5.8 °C 3.5 °C 1025.1 hPa West 1.4 km/h 6.4 km/h 85% 0.0 mm 32 W/m2
14:27 5.8 °C 3.5 °C 1025.1 hPa Calm   16.1 km/h 85% 0.0 mm 35 W/m2
14:32 5.8 °C 3.5 °C 1025.1 hPa Calm     85% 0.0 mm 30 W/m2
14:37 5.9 °C 3.6 °C 1025.1 hPa Calm   6.4 km/h 85% 0.0 mm 32 W/m2
14:42 5.9 °C 3.6 °C 1025.1 hPa Calm   8 km/h 85% 0.0 mm 37 W/m2
14:47 5.9 °C 3.7 °C 1025.1 hPa SW 1.4 km/h 6.4 km/h 86% 0.0 mm 33 W/m2
14:52 5.9 °C 3.7 °C 1025.1 hPa West 11.1 km/h 12.9 km/h 86% 0.0 mm 35 W/m2
14:57 5.9 °C 3.7 °C 1025.1 hPa Calm   3.2 km/h 86% 0.0 mm 44 W/m2
15:02 5.9 °C 3.9 °C 1025.1 hPa Calm   4.8 km/h 87% 0.0 mm 49 W/m2
15:07 5.9 °C 3.9 °C 1025.1 hPa Calm   1.6 km/h 87% 0.0 mm 69 W/m2
15:12 5.8 °C 4 °C 1025.1 hPa Calm   6.4 km/h 88% 0.0 mm 62 W/m2
15:17 5.8 °C 4.1 °C 1025.1 hPa East 3.2 km/h 3.2 km/h 89% 0.0 mm 90 W/m2
15:22 5.8 °C 4.1 °C 1025.1 hPa WSW 3.2 km/h 11.3 km/h 89% 0.0 mm 69 W/m2
15:27 5.7 °C 4.2 °C 1025.1 hPa Calm     90% 0.0 mm 56 W/m2
15:32 5.7 °C 4.2 °C 1025.1 hPa Calm   11.3 km/h 90% 0.0 mm 58 W/m2
15:37 5.7 °C 4.3 °C 1025.1 hPa Calm     91% 0.0 mm 42 W/m2
15:42 5.6 °C 4.2 °C 1025.1 hPa Calm   3.2 km/h 91% 0.0 mm 35 W/m2
15:47 5.6 °C 4.2 °C 1025.1 hPa SW 6.4 km/h 8 km/h 91% 0.0 mm 33 W/m2
15:52 5.5 °C 4.3 °C 1025.1 hPa Calm   1.6 km/h 92% 0.0 mm 26 W/m2
15:57 5.5 °C 4.3 °C 1025.1 hPa Calm   8 km/h 92% 0.0 mm 21 W/m2
16:02 5.4 °C 4.4 °C 1025.1 hPa Calm   4.8 km/h 93% 0.0 mm 19 W/m2
16:07 5.4 °C 4.4 °C 1025.1 hPa West 6.4 km/h 6.4 km/h 93% 0.0 mm 21 W/m2
16:12 5.4 °C 4.4 °C 1025.1 hPa Calm   1.6 km/h 93% 0.0 mm 16 W/m2
16:17 5.3 °C 4.4 °C 1025.1 hPa Calm   14.5 km/h 94% 0.0 mm 14 W/m2
16:22 5.3 °C 4.4 °C 1025.1 hPa Calm   9.7 km/h 94% 0.0 mm 11 W/m2
16:27 5.3 °C 4.4 °C 1025.1 hPa Calm   14.5 km/h 94% 0.0 mm 7 W/m2
16:32 5.3 °C 4.4 °C 1025.1 hPa WNW 3.2 km/h 3.2 km/h 94% 0.2 mm 5 W/m2
16:37 5.3 °C 4.4 °C 1025.4 hPa Calm   11.3 km/h 94% 0.2 mm 0 W/m2
16:42 5.3 °C 4.4 °C 1025.4 hPa Calm   3.2 km/h 94% 0.2 mm 0 W/m2
16:47 5.3 °C 4.4 °C 1025.4 hPa Calm   4.8 km/h 94% 0.2 mm 0 W/m2
16:52 5.2 °C 4.3 °C 1025.4 hPa Calm   1.6 km/h 94% 0.2 mm 0 W/m2
16:57 5.2 °C 4.5 °C 1025.4 hPa Calm   4.8 km/h 95% 0.2 mm 0 W/m2
17:02 5.2 °C 4.5 °C 1025.4 hPa Calm     95% 0.2 mm 0 W/m2
17:07 5.2 °C 4.5 °C 1025.4 hPa Calm     95% 0.2 mm 0 W/m2
17:12 5.2 °C 4.5 °C 1025.4 hPa Calm     95% 0.5 mm 0 W/m2
17:17 5.2 °C 4.5 °C 1025.7 hPa Calm     95% 0.5 mm 0 W/m2
17:22 5.2 °C 4.5 °C 1025.7 hPa Calm     95% 0.5 mm 0 W/m2
17:27 5.2 °C 4.5 °C 1025.7 hPa Calm   1.6 km/h 95% 0.2 mm 0 W/m2
17:32 5.2 °C 4.5 °C 1025.7 hPa Calm     95% 0.2 mm 0 W/m2
17:38 5.3 °C 4.6 °C 1025.7 hPa Calm     95% 0.2 mm 0 W/m2
17:43 5.3 °C 4.6 °C 1025.7 hPa Calm     95% 0.2 mm 0 W/m2
17:48 5.3 °C 4.6 °C 1025.7 hPa Calm     95% 0.2 mm 0 W/m2
17:53 5.3 °C 4.6 °C 1025.7 hPa Calm     95% 0.2 mm 0 W/m2
17:58 5.3 °C 4.6 °C 1025.7 hPa Calm   1.6 km/h 95% 0.2 mm 0 W/m2
18:03 5.3 °C 4.6 °C 1025.7 hPa Calm     95% 0.2 mm 0 W/m2
18:08 5.3 °C 4.6 °C 1025.7 hPa Calm     95% 0.2 mm 0 W/m2
18:13 5.4 °C 4.7 °C 1026.1 hPa Calm     95% 0.0 mm 0 W/m2
18:18 5.4 °C 4.7 °C 1026.1 hPa Calm     95% 0.0 mm 0 W/m2
18:23 5.4 °C 4.7 °C 1026.1 hPa Calm     95% 0.0 mm 0 W/m2
18:28 5.4 °C 4.7 °C 1026.1 hPa Calm     95% 0.0 mm 0 W/m2
18:33 5.4 °C 4.7 °C 1026.1 hPa Calm     95% 0.0 mm 0 W/m2
18:38 5.4 °C 4.7 °C 1026.1 hPa Calm     95% 0.0 mm 0 W/m2
18:43 5.5 °C 4.8 °C 1026.1 hPa Calm     95% 0.0 mm 0 W/m2
18:48 5.5 °C 4.8 °C 1026.1 hPa Calm     95% 0.0 mm 0 W/m2
18:53 5.5 °C 4.8 °C 1026.1 hPa Calm     95% 0.0 mm 0 W/m2
18:58 5.6 °C 4.9 °C 1026.1 hPa Calm     95% 0.0 mm 0 W/m2
19:03 5.6 °C 4.9 °C 1026.1 hPa Calm     95% 0.2 mm 0 W/m2
19:08 5.6 °C 4.9 °C 1026.1 hPa Calm     95% 0.2 mm 0 W/m2
19:13 5.6 °C 4.9 °C 1026.1 hPa Calm     95% 0.2 mm 0 W/m2
19:18 5.6 °C 4.9 °C 1026.4 hPa Calm     95% 0.2 mm 0 W/m2
19:23 5.6 °C 4.9 °C 1026.4 hPa Calm     95% 0.2 mm 0 W/m2
19:28 5.6 °C 4.9 °C 1026.4 hPa Calm     95% 0.2 mm 0 W/m2
19:33 5.6 °C 4.9 °C 1026.4 hPa Calm     95% 0.2 mm 0 W/m2
19:38 5.6 °C 4.9 °C 1026.4 hPa Calm     95% 0.2 mm 0 W/m2
19:43 5.6 °C 4.9 °C 1026.1 hPa Calm     95% 0.2 mm 0 W/m2
19:49 5.6 °C 4.9 °C 1026.1 hPa Calm     95% 0.2 mm 0 W/m2
19:54 5.6 °C 4.9 °C 1026.1 hPa Calm     95% 0.2 mm 0 W/m2
19:59 5.6 °C 4.9 °C 1026.1 hPa Calm     95% 0.2 mm 0 W/m2
20:04 5.6 °C 4.9 °C 1026.4 hPa Calm     95% 0.0 mm 0 W/m2
20:09 5.6 °C 4.9 °C 1026.4 hPa Calm   1.6 km/h 95% 0.0 mm 0 W/m2
20:14 5.6 °C 4.9 °C 1026.1 hPa Calm     95% 0.0 mm 0 W/m2
20:19 5.6 °C 4.9 °C 1026.1 hPa Calm   1.6 km/h 95% 0.0 mm 0 W/m2
20:24 5.6 °C 4.9 °C 1026.1 hPa Calm     95% 0.0 mm 0 W/m2
20:29 5.6 °C 4.9 °C 1026.1 hPa Calm     95% 0.0 mm 0 W/m2
20:34 5.6 °C 4.9 °C 1026.1 hPa Calm     95% 0.0 mm 0 W/m2
20:39 5.6 °C 4.9 °C 1026.1 hPa Calm     95% 0.0 mm 0 W/m2
20:44 5.6 °C 4.9 °C 1026.1 hPa Calm     95% 0.0 mm 0 W/m2
20:49 5.6 °C 4.9 °C 1026.4 hPa Calm     95% 0.0 mm 0 W/m2
20:54 5.6 °C 4.9 °C 1026.4 hPa Calm     95% 0.0 mm 0 W/m2
20:59 5.6 °C 4.9 °C 1026.1 hPa Calm     95% 0.0 mm 0 W/m2
21:04 5.6 °C 4.9 °C 1026.1 hPa Calm     95% 0.0 mm 0 W/m2
21:09 5.6 °C 4.9 °C 1026.1 hPa Calm   1.6 km/h 95% 0.0 mm 0 W/m2
21:14 5.6 °C 4.9 °C 1026.1 hPa Calm   1.6 km/h 95% 0.0 mm 0 W/m2
21:19 5.6 °C 4.9 °C 1026.1 hPa Calm     95% 0.0 mm 0 W/m2
21:24 5.6 °C 4.9 °C 1026.1 hPa SW 1.4 km/h 1.6 km/h 95% 0.0 mm 0 W/m2
21:29 5.6 °C 5 °C 1026.1 hPa Calm     96% 0.0 mm 0 W/m2
21:34 5.6 °C 5 °C 1026.1 hPa Calm   1.6 km/h 96% 0.0 mm 0 W/m2
21:39 5.6 °C 5 °C 1026.1 hPa Calm     96% 0.0 mm 0 W/m2
21:44 5.7 °C 5.1 °C 1026.1 hPa Calm   1.6 km/h 96% 0.0 mm 0 W/m2
21:49 5.7 °C 5.1 °C 1026.1 hPa Calm     96% 0.0 mm 0 W/m2
21:54 5.7 °C 5.1 °C 1026.1 hPa Calm   1.6 km/h 96% 0.0 mm 0 W/m2
21:59 5.7 °C 5.1 °C 1026.1 hPa Calm     96% 0.0 mm 0 W/m2
22:04 5.7 °C 5.1 °C 1026.1 hPa Calm   8 km/h 96% 0.0 mm 0 W/m2
22:09 5.7 °C 5.1 °C 1026.1 hPa Calm     96% 0.0 mm 0 W/m2
22:14 5.7 °C 5.1 °C 1026.4 hPa Calm   6.4 km/h 96% 0.0 mm 0 W/m2
22:19 5.7 °C 5.1 °C 1026.1 hPa Calm     96% 0.0 mm 0 W/m2
22:24 5.8 °C 5.2 °C 1026.1 hPa Calm   1.6 km/h 96% 0.0 mm 0 W/m2
22:29 5.8 °C 5.2 °C 1026.1 hPa Calm   9.7 km/h 96% 0.0 mm 0 W/m2
22:34 5.8 °C 5.2 °C 1026.1 hPa Calm     96% 0.0 mm 0 W/m2
22:39 5.8 °C 5.2 °C 1026.1 hPa Calm   1.6 km/h 96% 0.0 mm 0 W/m2
22:44 5.8 °C 5.2 °C 1026.1 hPa West 1.4 km/h 4.8 km/h 96% 0.0 mm 0 W/m2
22:49 5.9 °C 5.3 °C 1026.1 hPa Calm     96% 0.0 mm 0 W/m2
22:54 5.9 °C 5.3 °C 1026.1 hPa Calm     96% 0.0 mm 0 W/m2
22:59 5.9 °C 5.3 °C 1026.1 hPa Calm   4.8 km/h 96% 0.0 mm 0 W/m2
23:05 5.9 °C 5.3 °C 1026.1 hPa Calm     96% 0.0 mm 0 W/m2
23:10 5.9 °C 5.3 °C 1026.1 hPa Calm   1.6 km/h 96% 0.0 mm 0 W/m2
23:15 5.9 °C 5.3 °C 1026.1 hPa Calm   1.6 km/h 96% 0.0 mm 0 W/m2
23:20 5.9 °C 5.3 °C 1025.7 hPa Calm     96% 0.0 mm 0 W/m2
23:25 5.9 °C 5.3 °C 1026.1 hPa Calm     96% 0.0 mm 0 W/m2
23:30 5.9 °C 5.3 °C 1025.7 hPa Calm   4.8 km/h 96% 0.0 mm 0 W/m2
23:35 5.9 °C 5.3 °C 1025.7 hPa Calm     96% 0.0 mm 0 W/m2
23:40 5.9 °C 5.3 °C 1025.7 hPa Calm   4.8 km/h 96% 0.0 mm 0 W/m2
23:45 6 °C 5.4 °C 1025.7 hPa Calm     96% 0.0 mm 0 W/m2
23:50 6 °C 5.4 °C 1025.7 hPa Calm     96% 0.0 mm 0 W/m2
23:55 6 °C 5.4 °C 1025.7 hPa Calm     96% 0.0 mm 0 W/m2
Juneau County Weather
Compliments of Weather Underground - 4 mb